sensor_id;sensor_type;location;lat;lon;timestamp;temperature;humidity
14531;DHT22;7352;50.866;4.366;2023-08-12T00:01:02;24.00;99.90
14531;DHT22;7352;50.866;4.366;2023-08-12T00:03:33;23.90;99.90
14531;DHT22;7352;50.866;4.366;2023-08-12T00:06:01;23.70;99.90
14531;DHT22;7352;50.866;4.366;2023-08-12T00:08:32;23.70;99.90
14531;DHT22;7352;50.866;4.366;2023-08-12T00:11:08;23.60;99.90
14531;DHT22;7352;50.866;4.366;2023-08-12T00:13:39;23.70;99.90
14531;DHT22;7352;50.866;4.366;2023-08-12T00:16:07;23.70;99.90
14531;DHT22;7352;50.866;4.366;2023-08-12T00:18:43;23.80;99.90
14531;DHT22;7352;50.866;4.366;2023-08-12T00:21:10;24.00;99.90
14531;DHT22;7352;50.866;4.366;2023-08-12T00:23:41;24.00;99.90
14531;DHT22;7352;50.866;4.366;2023-08-12T00:26:11;24.00;99.90
14531;DHT22;7352;50.866;4.366;2023-08-12T00:28:39;24.00;99.90
14531;DHT22;7352;50.866;4.366;2023-08-12T00:31:42;24.00;99.90
14531;DHT22;7352;50.866;4.366;2023-08-12T00:34:32;24.00;99.90
14531;DHT22;7352;50.866;4.366;2023-08-12T00:37:01;23.90;99.90
14531;DHT22;7352;50.866;4.366;2023-08-12T00:39:28;23.70;99.90
14531;DHT22;7352;50.866;4.366;2023-08-12T00:41:57;23.80;99.90
14531;DHT22;7352;50.866;4.366;2023-08-12T00:44:24;23.70;99.90
14531;DHT22;7352;50.866;4.366;2023-08-12T00:46:54;23.60;99.90
14531;DHT22;7352;50.866;4.366;2023-08-12T00:49:25;23.60;99.90
14531;DHT22;7352;50.866;4.366;2023-08-12T00:51:56;23.70;99.90
14531;DHT22;7352;50.866;4.366;2023-08-12T00:54:26;23.70;99.90
14531;DHT22;7352;50.866;4.366;2023-08-12T00:56:56;23.60;99.90
14531;DHT22;7352;50.866;4.366;2023-08-12T00:59:25;23.70;99.90
14531;DHT22;7352;50.866;4.366;2023-08-12T01:01:57;23.80;99.90
14531;DHT22;7352;50.866;4.366;2023-08-12T01:04:42;23.90;99.90
14531;DHT22;7352;50.866;4.366;2023-08-12T01:07:13;23.90;99.90
14531;DHT22;7352;50.866;4.366;2023-08-12T01:09:41;23.90;99.90
14531;DHT22;7352;50.866;4.366;2023-08-12T01:12:16;23.80;99.90
14531;DHT22;7352;50.866;4.366;2023-08-12T01:14:47;23.50;99.90
14531;DHT22;7352;50.866;4.366;2023-08-12T01:17:18;23.60;99.90
14531;DHT22;7352;50.866;4.366;2023-08-12T01:19:47;23.60;99.90
14531;DHT22;7352;50.866;4.366;2023-08-12T01:22:15;23.60;99.90
14531;DHT22;7352;50.866;4.366;2023-08-12T01:24:45;23.50;99.90
14531;DHT22;7352;50.866;4.366;2023-08-12T01:27:13;23.10;99.90
14531;DHT22;7352;50.866;4.366;2023-08-12T01:29:42;23.30;99.90
14531;DHT22;7352;50.866;4.366;2023-08-12T01:32:17;23.30;99.90
14531;DHT22;7352;50.866;4.366;2023-08-12T01:34:55;23.50;99.90
14531;DHT22;7352;50.866;4.366;2023-08-12T01:37:25;23.40;99.90
14531;DHT22;7352;50.866;4.366;2023-08-12T01:39:56;23.40;99.90
14531;DHT22;7352;50.866;4.366;2023-08-12T01:42:31;23.50;99.90
14531;DHT22;7352;50.866;4.366;2023-08-12T01:44:59;23.60;99.90
14531;DHT22;7352;50.866;4.366;2023-08-12T01:47:32;23.70;99.90
14531;DHT22;7352;50.866;4.366;2023-08-12T01:49:59;23.70;99.90
14531;DHT22;7352;50.866;4.366;2023-08-12T01:52:27;23.70;99.90
14531;DHT22;7352;50.866;4.366;2023-08-12T01:54:56;23.50;99.90
14531;DHT22;7352;50.866;4.366;2023-08-12T01:57:23;23.60;99.90
14531;DHT22;7352;50.866;4.366;2023-08-12T01:59:51;23.60;99.90
14531;DHT22;7352;50.866;4.366;2023-08-12T02:02:19;23.40;99.90
14531;DHT22;7352;50.866;4.366;2023-08-12T02:04:46;23.50;99.90
14531;DHT22;7352;50.866;4.366;2023-08-12T02:07:14;23.70;99.90
14531;DHT22;7352;50.866;4.366;2023-08-12T02:09:41;23.70;99.90
14531;DHT22;7352;50.866;4.366;2023-08-12T02:12:10;23.50;99.90
14531;DHT22;7352;50.866;4.366;2023-08-12T02:14:37;23.50;99.90
14531;DHT22;7352;50.866;4.366;2023-08-12T02:17:04;23.40;99.90
14531;DHT22;7352;50.866;4.366;2023-08-12T02:19:31;23.40;99.90
14531;DHT22;7352;50.866;4.366;2023-08-12T02:21:59;23.20;99.90
14531;DHT22;7352;50.866;4.366;2023-08-12T02:24:28;23.20;99.90
14531;DHT22;7352;50.866;4.366;2023-08-12T02:26:55;23.10;99.90
14531;DHT22;7352;50.866;4.366;2023-08-12T02:29:24;23.20;99.90
14531;DHT22;7352;50.866;4.366;2023-08-12T02:31:51;23.20;99.90
14531;DHT22;7352;50.866;4.366;2023-08-12T02:34:18;23.20;99.90
14531;DHT22;7352;50.866;4.366;2023-08-12T02:36:45;23.20;99.90
14531;DHT22;7352;50.866;4.366;2023-08-12T02:39:12;23.20;99.90
14531;DHT22;7352;50.866;4.366;2023-08-12T02:41:39;23.30;99.90
14531;DHT22;7352;50.866;4.366;2023-08-12T02:44:08;23.30;99.90
14531;DHT22;7352;50.866;4.366;2023-08-12T02:46:36;23.40;99.90
14531;DHT22;7352;50.866;4.366;2023-08-12T02:49:04;23.30;99.90
14531;DHT22;7352;50.866;4.366;2023-08-12T02:51:31;23.20;99.90
14531;DHT22;7352;50.866;4.366;2023-08-12T02:53:58;23.10;99.90
14531;DHT22;7352;50.866;4.366;2023-08-12T02:56:25;23.20;99.90
14531;DHT22;7352;50.866;4.366;2023-08-12T02:58:52;23.10;99.90
14531;DHT22;7352;50.866;4.366;2023-08-12T03:01:20;23.10;99.90
14531;DHT22;7352;50.866;4.366;2023-08-12T03:03:48;23.20;99.90
14531;DHT22;7352;50.866;4.366;2023-08-12T03:06:15;23.10;99.90
14531;DHT22;7352;50.866;4.366;2023-08-12T03:08:43;23.10;99.90
14531;DHT22;7352;50.866;4.366;2023-08-12T03:11:10;23.00;99.90
14531;DHT22;7352;50.866;4.366;2023-08-12T03:13:37;23.00;99.90
14531;DHT22;7352;50.866;4.366;2023-08-12T03:16:04;23.20;99.90
14531;DHT22;7352;50.866;4.366;2023-08-12T03:18:41;23.20;99.90
14531;DHT22;7352;50.866;4.366;2023-08-12T03:21:14;23.20;99.90
14531;DHT22;7352;50.866;4.366;2023-08-12T03:23:43;23.00;99.90
14531;DHT22;7352;50.866;4.366;2023-08-12T03:26:29;23.00;99.90
14531;DHT22;7352;50.866;4.366;2023-08-12T03:29:10;22.90;99.90
14531;DHT22;7352;50.866;4.366;2023-08-12T03:31:45;22.70;99.90
14531;DHT22;7352;50.866;4.366;2023-08-12T03:34:12;22.70;99.90
14531;DHT22;7352;50.866;4.366;2023-08-12T03:36:41;22.60;99.90
14531;DHT22;7352;50.866;4.366;2023-08-12T03:39:08;22.60;99.90
14531;DHT22;7352;50.866;4.366;2023-08-12T03:41:36;22.50;99.90
14531;DHT22;7352;50.866;4.366;2023-08-12T03:44:10;22.40;99.90
14531;DHT22;7352;50.866;4.366;2023-08-12T03:46:37;22.30;99.90
14531;DHT22;7352;50.866;4.366;2023-08-12T03:49:30;22.20;99.90
14531;DHT22;7352;50.866;4.366;2023-08-12T03:52:19;22.20;99.90
14531;DHT22;7352;50.866;4.366;2023-08-12T03:54:46;22.20;99.90
14531;DHT22;7352;50.866;4.366;2023-08-12T03:57:15;22.10;99.90
14531;DHT22;7352;50.866;4.366;2023-08-12T03:59:44;22.10;99.90
14531;DHT22;7352;50.866;4.366;2023-08-12T04:02:11;22.10;99.90
14531;DHT22;7352;50.866;4.366;2023-08-12T04:04:38;22.00;99.90
14531;DHT22;7352;50.866;4.366;2023-08-12T04:07:05;21.90;99.90
14531;DHT22;7352;50.866;4.366;2023-08-12T04:09:34;22.00;99.90
14531;DHT22;7352;50.866;4.366;2023-08-12T04:12:03;22.10;99.90
14531;DHT22;7352;50.866;4.366;2023-08-12T04:14:30;22.00;99.90
14531;DHT22;7352;50.866;4.366;2023-08-12T04:17:06;21.90;99.90
14531;DHT22;7352;50.866;4.366;2023-08-12T04:19:33;21.80;99.90
14531;DHT22;7352;50.866;4.366;2023-08-12T04:22:00;21.80;99.90
14531;DHT22;7352;50.866;4.366;2023-08-12T04:24:28;21.90;99.90
14531;DHT22;7352;50.866;4.366;2023-08-12T04:26:59;21.90;99.90
14531;DHT22;7352;50.866;4.366;2023-08-12T04:29:25;21.80;99.90
14531;DHT22;7352;50.866;4.366;2023-08-12T04:31:52;21.80;99.90
14531;DHT22;7352;50.866;4.366;2023-08-12T04:34:19;21.80;99.90
14531;DHT22;7352;50.866;4.366;2023-08-12T04:36:47;21.80;99.90
14531;DHT22;7352;50.866;4.366;2023-08-12T04:39:14;21.80;99.90
14531;DHT22;7352;50.866;4.366;2023-08-12T04:41:41;21.90;99.90
14531;DHT22;7352;50.866;4.366;2023-08-12T04:44:11;21.90;99.90
14531;DHT22;7352;50.866;4.366;2023-08-12T04:46:38;21.90;99.90
14531;DHT22;7352;50.866;4.366;2023-08-12T04:49:05;21.90;99.90
14531;DHT22;7352;50.866;4.366;2023-08-12T04:51:35;22.00;99.90
14531;DHT22;7352;50.866;4.366;2023-08-12T04:54:02;22.00;99.90
14531;DHT22;7352;50.866;4.366;2023-08-12T04:56:29;22.00;99.90
14531;DHT22;7352;50.866;4.366;2023-08-12T04:58:56;22.10;99.90
14531;DHT22;7352;50.866;4.366;2023-08-12T05:01:25;21.80;99.90
14531;DHT22;7352;50.866;4.366;2023-08-12T05:03:52;21.80;99.90
14531;DHT22;7352;50.866;4.366;2023-08-12T05:06:19;21.90;99.90
14531;DHT22;7352;50.866;4.366;2023-08-12T05:08:46;21.80;99.90
14531;DHT22;7352;50.866;4.366;2023-08-12T05:11:14;21.70;99.90
14531;DHT22;7352;50.866;4.366;2023-08-12T05:13:44;21.70;99.90
14531;DHT22;7352;50.866;4.366;2023-08-12T05:16:11;21.60;99.90
14531;DHT22;7352;50.866;4.366;2023-08-12T05:18:44;21.60;99.90
14531;DHT22;7352;50.866;4.366;2023-08-12T05:21:12;21.60;99.90
14531;DHT22;7352;50.866;4.366;2023-08-12T05:23:41;21.70;99.90
14531;DHT22;7352;50.866;4.366;2023-08-12T05:26:12;21.60;99.90
14531;DHT22;7352;50.866;4.366;2023-08-12T05:28:39;21.70;99.90
14531;DHT22;7352;50.866;4.366;2023-08-12T05:31:07;21.80;99.90
14531;DHT22;7352;50.866;4.366;2023-08-12T05:33:36;21.70;99.90
14531;DHT22;7352;50.866;4.366;2023-08-12T05:36:06;21.80;99.90
14531;DHT22;7352;50.866;4.366;2023-08-12T05:38:44;21.70;99.90
14531;DHT22;7352;50.866;4.366;2023-08-12T05:41:25;21.70;99.90
14531;DHT22;7352;50.866;4.366;2023-08-12T05:43:55;21.80;99.90
14531;DHT22;7352;50.866;4.366;2023-08-12T05:46:22;21.90;99.90
14531;DHT22;7352;50.866;4.366;2023-08-12T05:48:49;21.90;99.90
14531;DHT22;7352;50.866;4.366;2023-08-12T05:51:26;21.90;99.90
14531;DHT22;7352;50.866;4.366;2023-08-12T05:53:53;21.90;99.90
14531;DHT22;7352;50.866;4.366;2023-08-12T05:56:20;21.80;99.90
14531;DHT22;7352;50.866;4.366;2023-08-12T05:58:49;21.70;99.90
14531;DHT22;7352;50.866;4.366;2023-08-12T06:01:18;21.70;99.90
14531;DHT22;7352;50.866;4.366;2023-08-12T06:03:45;21.70;99.90
14531;DHT22;7352;50.866;4.366;2023-08-12T06:08:54;21.80;99.90
14531;DHT22;7352;50.866;4.366;2023-08-12T06:11:22;21.90;99.90
14531;DHT22;7352;50.866;4.366;2023-08-12T06:13:50;21.90;99.90
14531;DHT22;7352;50.866;4.366;2023-08-12T06:16:20;21.80;99.90
14531;DHT22;7352;50.866;4.366;2023-08-12T06:19:03;21.70;99.90
14531;DHT22;7352;50.866;4.366;2023-08-12T06:21:44;21.60;99.90
14531;DHT22;7352;50.866;4.366;2023-08-12T06:24:18;21.60;99.90
14531;DHT22;7352;50.866;4.366;2023-08-12T06:26:46;21.60;99.90
14531;DHT22;7352;50.866;4.366;2023-08-12T06:29:43;21.70;99.90
14531;DHT22;7352;50.866;4.366;2023-08-12T06:32:55;21.60;99.90
14531;DHT22;7352;50.866;4.366;2023-08-12T06:35:41;21.70;99.90
14531;DHT22;7352;50.866;4.366;2023-08-12T06:38:22;21.70;99.90
14531;DHT22;7352;50.866;4.366;2023-08-12T06:40:54;21.80;99.90
14531;DHT22;7352;50.866;4.366;2023-08-12T06:43:35;21.70;99.90
14531;DHT22;7352;50.866;4.366;2023-08-12T06:46:08;21.80;99.90
14531;DHT22;7352;50.866;4.366;2023-08-12T06:48:35;21.90;99.90
14531;DHT22;7352;50.866;4.366;2023-08-12T06:51:03;22.00;99.90
14531;DHT22;7352;50.866;4.366;2023-08-12T06:53:36;22.00;99.90
14531;DHT22;7352;50.866;4.366;2023-08-12T06:56:05;22.10;99.90
14531;DHT22;7352;50.866;4.366;2023-08-12T06:58:46;22.10;99.90
14531;DHT22;7352;50.866;4.366;2023-08-12T07:01:18;22.00;99.90
14531;DHT22;7352;50.866;4.366;2023-08-12T07:04:05;22.00;99.90
14531;DHT22;7352;50.866;4.366;2023-08-12T07:06:35;22.00;99.90
14531;DHT22;7352;50.866;4.366;2023-08-12T07:09:06;22.00;99.90
14531;DHT22;7352;50.866;4.366;2023-08-12T07:11:43;22.00;99.90
14531;DHT22;7352;50.866;4.366;2023-08-12T07:14:10;22.00;99.90
14531;DHT22;7352;50.866;4.366;2023-08-12T07:16:39;21.90;99.90
14531;DHT22;7352;50.866;4.366;2023-08-12T07:19:08;21.70;99.90
14531;DHT22;7352;50.866;4.366;2023-08-12T07:21:40;21.30;99.90
14531;DHT22;7352;50.866;4.366;2023-08-12T07:27:21;21.20;99.90
14531;DHT22;7352;50.866;4.366;2023-08-12T07:29:50;21.10;99.90
14531;DHT22;7352;50.866;4.366;2023-08-12T07:32:19;21.10;99.90
14531;DHT22;7352;50.866;4.366;2023-08-12T07:34:48;21.10;99.90
14531;DHT22;7352;50.866;4.366;2023-08-12T07:37:19;21.00;99.90
14531;DHT22;7352;50.866;4.366;2023-08-12T07:39:46;21.30;99.90
14531;DHT22;7352;50.866;4.366;2023-08-12T07:42:35;21.30;99.90
14531;DHT22;7352;50.866;4.366;2023-08-12T07:45:05;21.40;99.90
14531;DHT22;7352;50.866;4.366;2023-08-12T07:47:34;21.40;99.90
14531;DHT22;7352;50.866;4.366;2023-08-12T07:50:08;21.30;99.90
14531;DHT22;7352;50.866;4.366;2023-08-12T07:52:38;21.40;99.90
14531;DHT22;7352;50.866;4.366;2023-08-12T07:55:05;21.50;99.90
14531;DHT22;7352;50.866;4.366;2023-08-12T07:57:33;21.60;99.90
14531;DHT22;7352;50.866;4.366;2023-08-12T08:00:09;21.60;99.90
14531;DHT22;7352;50.866;4.366;2023-08-12T08:02:38;21.40;99.90
14531;DHT22;7352;50.866;4.366;2023-08-12T08:05:06;21.50;99.90
14531;DHT22;7352;50.866;4.366;2023-08-12T08:07:33;21.50;99.90
14531;DHT22;7352;50.866;4.366;2023-08-12T08:10:01;21.50;99.90
14531;DHT22;7352;50.866;4.366;2023-08-12T08:12:28;21.50;99.90
14531;DHT22;7352;50.866;4.366;2023-08-12T08:14:55;21.50;99.90
14531;DHT22;7352;50.866;4.366;2023-08-12T08:17:24;21.60;99.90
14531;DHT22;7352;50.866;4.366;2023-08-12T08:19:51;21.80;99.90
14531;DHT22;7352;50.866;4.366;2023-08-12T08:22:19;21.90;99.90
14531;DHT22;7352;50.866;4.366;2023-08-12T08:24:46;22.10;99.90
14531;DHT22;7352;50.866;4.366;2023-08-12T08:27:13;22.00;99.90
14531;DHT22;7352;50.866;4.366;2023-08-12T08:29:45;22.10;99.90
14531;DHT22;7352;50.866;4.366;2023-08-12T08:32:15;22.10;99.90
14531;DHT22;7352;50.866;4.366;2023-08-12T08:34:49;22.00;99.90
14531;DHT22;7352;50.866;4.366;2023-08-12T08:37:17;21.90;99.90
14531;DHT22;7352;50.866;4.366;2023-08-12T08:40:00;22.10;99.90
14531;DHT22;7352;50.866;4.366;2023-08-12T08:42:33;22.30;99.90
14531;DHT22;7352;50.866;4.366;2023-08-12T08:45:10;22.40;99.90
14531;DHT22;7352;50.866;4.366;2023-08-12T08:47:41;22.50;99.90
14531;DHT22;7352;50.866;4.366;2023-08-12T08:50:10;22.60;99.90
14531;DHT22;7352;50.866;4.366;2023-08-12T08:52:37;22.70;99.90
14531;DHT22;7352;50.866;4.366;2023-08-12T08:55:06;22.70;99.90
14531;DHT22;7352;50.866;4.366;2023-08-12T08:57:33;22.60;99.90
14531;DHT22;7352;50.866;4.366;2023-08-12T09:00:03;22.30;99.90
14531;DHT22;7352;50.866;4.366;2023-08-12T09:02:35;22.40;99.90
14531;DHT22;7352;50.866;4.366;2023-08-12T09:05:03;22.30;99.90
14531;DHT22;7352;50.866;4.366;2023-08-12T09:07:34;22.60;99.90
14531;DHT22;7352;50.866;4.366;2023-08-12T09:10:03;22.90;99.90
14531;DHT22;7352;50.866;4.366;2023-08-12T09:12:34;23.10;99.90
14531;DHT22;7352;50.866;4.366;2023-08-12T09:15:04;23.30;99.90
14531;DHT22;7352;50.866;4.366;2023-08-12T09:17:34;23.40;99.90
14531;DHT22;7352;50.866;4.366;2023-08-12T09:20:02;23.60;99.90
14531;DHT22;7352;50.866;4.366;2023-08-12T09:22:40;23.70;99.90
14531;DHT22;7352;50.866;4.366;2023-08-12T09:25:15;23.70;99.90
14531;DHT22;7352;50.866;4.366;2023-08-12T09:27:44;23.90;99.90
14531;DHT22;7352;50.866;4.366;2023-08-12T09:30:12;24.10;99.90
14531;DHT22;7352;50.866;4.366;2023-08-12T09:32:40;24.10;99.90
14531;DHT22;7352;50.866;4.366;2023-08-12T09:35:15;23.90;99.90
14531;DHT22;7352;50.866;4.366;2023-08-12T09:37:45;23.50;99.90
14531;DHT22;7352;50.866;4.366;2023-08-12T09:40:16;23.40;99.90
14531;DHT22;7352;50.866;4.366;2023-08-12T09:42:47;23.50;99.90
14531;DHT22;7352;50.866;4.366;2023-08-12T09:45:15;23.50;99.90
14531;DHT22;7352;50.866;4.366;2023-08-12T09:47:42;23.40;99.90
14531;DHT22;7352;50.866;4.366;2023-08-12T09:50:14;23.20;99.90
14531;DHT22;7352;50.866;4.366;2023-08-12T09:52:42;23.20;99.90
14531;DHT22;7352;50.866;4.366;2023-08-12T09:55:11;23.30;99.90
14531;DHT22;7352;50.866;4.366;2023-08-12T09:57:42;23.20;99.90
14531;DHT22;7352;50.866;4.366;2023-08-12T10:00:11;23.40;99.90
14531;DHT22;7352;50.866;4.366;2023-08-12T10:02:43;23.50;99.90
14531;DHT22;7352;50.866;4.366;2023-08-12T10:05:15;23.40;99.90
14531;DHT22;7352;50.866;4.366;2023-08-12T10:07:44;23.40;99.90
14531;DHT22;7352;50.866;4.366;2023-08-12T10:10:14;23.60;99.90
14531;DHT22;7352;50.866;4.366;2023-08-12T10:12:43;23.50;99.90
14531;DHT22;7352;50.866;4.366;2023-08-12T10:15:14;23.50;99.90
14531;DHT22;7352;50.866;4.366;2023-08-12T10:17:41;23.50;99.90
14531;DHT22;7352;50.866;4.366;2023-08-12T10:20:13;23.50;99.90
14531;DHT22;7352;50.866;4.366;2023-08-12T10:22:41;23.80;99.90
14531;DHT22;7352;50.866;4.366;2023-08-12T10:25:09;23.90;99.90
14531;DHT22;7352;50.866;4.366;2023-08-12T10:27:42;24.00;99.90
14531;DHT22;7352;50.866;4.366;2023-08-12T10:30:10;23.90;99.90
14531;DHT22;7352;50.866;4.366;2023-08-12T10:32:39;23.90;99.90
14531;DHT22;7352;50.866;4.366;2023-08-12T10:35:07;23.80;99.90
14531;DHT22;7352;50.866;4.366;2023-08-12T10:37:35;23.90;99.90
14531;DHT22;7352;50.866;4.366;2023-08-12T10:40:03;23.90;99.90
14531;DHT22;7352;50.866;4.366;2023-08-12T10:42:45;23.90;99.90
14531;DHT22;7352;50.866;4.366;2023-08-12T10:45:13;23.80;99.90
14531;DHT22;7352;50.866;4.366;2023-08-12T10:47:43;23.60;99.90
14531;DHT22;7352;50.866;4.366;2023-08-12T10:50:21;23.50;99.90
14531;DHT22;7352;50.866;4.366;2023-08-12T10:52:51;23.60;99.90
14531;DHT22;7352;50.866;4.366;2023-08-12T10:55:21;23.60;99.90
14531;DHT22;7352;50.866;4.366;2023-08-12T10:57:53;23.40;99.90
14531;DHT22;7352;50.866;4.366;2023-08-12T11:00:23;23.40;99.90
14531;DHT22;7352;50.866;4.366;2023-08-12T11:02:52;23.40;99.90
14531;DHT22;7352;50.866;4.366;2023-08-12T11:05:19;23.70;99.90
14531;DHT22;7352;50.866;4.366;2023-08-12T11:07:48;23.90;99.90
14531;DHT22;7352;50.866;4.366;2023-08-12T11:10:18;24.00;99.90
14531;DHT22;7352;50.866;4.366;2023-08-12T11:12:55;24.10;99.90
14531;DHT22;7352;50.866;4.366;2023-08-12T11:15:33;23.80;99.90
14531;DHT22;7352;50.866;4.366;2023-08-12T11:18:02;23.70;99.90
14531;DHT22;7352;50.866;4.366;2023-08-12T11:20:37;23.60;99.90
14531;DHT22;7352;50.866;4.366;2023-08-12T11:23:06;23.70;99.90
14531;DHT22;7352;50.866;4.366;2023-08-12T11:25:34;23.80;99.90
14531;DHT22;7352;50.866;4.366;2023-08-12T11:28:04;24.00;99.90
14531;DHT22;7352;50.866;4.366;2023-08-12T11:30:32;24.10;99.90
14531;DHT22;7352;50.866;4.366;2023-08-12T11:33:00;24.20;99.90
14531;DHT22;7352;50.866;4.366;2023-08-12T11:35:28;24.30;99.90
14531;DHT22;7352;50.866;4.366;2023-08-12T11:37:57;24.40;99.90
14531;DHT22;7352;50.866;4.366;2023-08-12T11:40:26;24.50;99.90
14531;DHT22;7352;50.866;4.366;2023-08-12T11:42:54;24.80;99.90
14531;DHT22;7352;50.866;4.366;2023-08-12T11:45:25;24.90;99.90
14531;DHT22;7352;50.866;4.366;2023-08-12T11:47:53;25.00;99.90
14531;DHT22;7352;50.866;4.366;2023-08-12T11:50:22;25.00;99.90
14531;DHT22;7352;50.866;4.366;2023-08-12T11:52:50;25.00;99.90
14531;DHT22;7352;50.866;4.366;2023-08-12T11:55:18;24.80;99.90
14531;DHT22;7352;50.866;4.366;2023-08-12T11:57:46;24.80;99.90
14531;DHT22;7352;50.866;4.366;2023-08-12T12:00:14;24.70;99.90
14531;DHT22;7352;50.866;4.366;2023-08-12T12:02:49;24.50;99.90
14531;DHT22;7352;50.866;4.366;2023-08-12T12:05:17;24.60;99.90
14531;DHT22;7352;50.866;4.366;2023-08-12T12:07:48;24.60;99.90
14531;DHT22;7352;50.866;4.366;2023-08-12T12:10:19;24.50;99.90
14531;DHT22;7352;50.866;4.366;2023-08-12T12:12:48;24.60;99.90
14531;DHT22;7352;50.866;4.366;2023-08-12T12:15:38;24.60;99.90
14531;DHT22;7352;50.866;4.366;2023-08-12T12:18:11;24.80;99.90
14531;DHT22;7352;50.866;4.366;2023-08-12T12:20:53;24.70;99.90
14531;DHT22;7352;50.866;4.366;2023-08-12T12:23:21;24.80;99.90
14531;DHT22;7352;50.866;4.366;2023-08-12T12:25:48;24.90;99.90
14531;DHT22;7352;50.866;4.366;2023-08-12T12:28:16;25.10;99.90
14531;DHT22;7352;50.866;4.366;2023-08-12T12:30:45;25.20;99.90
14531;DHT22;7352;50.866;4.366;2023-08-12T12:33:14;25.30;99.90
14531;DHT22;7352;50.866;4.366;2023-08-12T12:35:43;25.20;99.90
14531;DHT22;7352;50.866;4.366;2023-08-12T12:38:11;25.30;99.90
14531;DHT22;7352;50.866;4.366;2023-08-12T12:40:40;25.40;99.90
14531;DHT22;7352;50.866;4.366;2023-08-12T12:43:09;25.60;99.90
14531;DHT22;7352;50.866;4.366;2023-08-12T12:45:36;25.50;99.90
14531;DHT22;7352;50.866;4.366;2023-08-12T12:48:10;25.40;99.90
14531;DHT22;7352;50.866;4.366;2023-08-12T12:50:39;25.20;99.90
14531;DHT22;7352;50.866;4.366;2023-08-12T12:53:06;25.30;99.90
14531;DHT22;7352;50.866;4.366;2023-08-12T12:55:33;25.40;99.90
14531;DHT22;7352;50.866;4.366;2023-08-12T12:58:00;25.60;99.90
14531;DHT22;7352;50.866;4.366;2023-08-12T13:00:27;25.70;99.90
14531;DHT22;7352;50.866;4.366;2023-08-12T13:02:55;25.80;99.90
14531;DHT22;7352;50.866;4.366;2023-08-12T13:05:23;25.80;99.90
14531;DHT22;7352;50.866;4.366;2023-08-12T13:07:51;25.90;99.90
14531;DHT22;7352;50.866;4.366;2023-08-12T13:10:18;26.10;99.90
14531;DHT22;7352;50.866;4.366;2023-08-12T13:12:47;26.30;99.90
14531;DHT22;7352;50.866;4.366;2023-08-12T13:15:19;26.40;99.80
14531;DHT22;7352;50.866;4.366;2023-08-12T13:17:46;26.40;99.90
14531;DHT22;7352;50.866;4.366;2023-08-12T13:20:13;26.10;99.90
14531;DHT22;7352;50.866;4.366;2023-08-12T13:22:41;26.10;99.90
14531;DHT22;7352;50.866;4.366;2023-08-12T13:25:10;26.10;99.90
14531;DHT22;7352;50.866;4.366;2023-08-12T13:27:37;26.10;99.90
14531;DHT22;7352;50.866;4.366;2023-08-12T13:30:11;25.90;99.90
14531;DHT22;7352;50.866;4.366;2023-08-12T13:32:40;25.90;99.90
14531;DHT22;7352;50.866;4.366;2023-08-12T13:35:10;26.10;99.90
14531;DHT22;7352;50.866;4.366;2023-08-12T13:37:37;26.20;99.90
14531;DHT22;7352;50.866;4.366;2023-08-12T13:40:05;26.30;99.90
14531;DHT22;7352;50.866;4.366;2023-08-12T13:42:47;26.40;99.90
14531;DHT22;7352;50.866;4.366;2023-08-12T13:45:15;26.40;99.90
14531;DHT22;7352;50.866;4.366;2023-08-12T13:47:42;26.70;99.90
14531;DHT22;7352;50.866;4.366;2023-08-12T13:50:11;26.80;99.90
14531;DHT22;7352;50.866;4.366;2023-08-12T13:52:39;26.90;99.80
14531;DHT22;7352;50.866;4.366;2023-08-12T13:55:06;27.10;99.00
14531;DHT22;7352;50.866;4.366;2023-08-12T13:57:33;27.10;99.90
14531;DHT22;7352;50.866;4.366;2023-08-12T14:00:02;27.10;99.10
14531;DHT22;7352;50.866;4.366;2023-08-12T14:02:36;27.10;98.30
14531;DHT22;7352;50.866;4.366;2023-08-12T14:05:06;27.00;98.60
14531;DHT22;7352;50.866;4.366;2023-08-12T14:07:35;26.90;98.80
14531;DHT22;7352;50.866;4.366;2023-08-12T14:10:02;27.00;99.10
14531;DHT22;7352;50.866;4.366;2023-08-12T14:12:31;27.10;98.60
14531;DHT22;7352;50.866;4.366;2023-08-12T14:14:59;27.10;98.20
14531;DHT22;7352;50.866;4.366;2023-08-12T14:17:27;27.10;98.60
14531;DHT22;7352;50.866;4.366;2023-08-12T14:19:54;27.20;98.30
14531;DHT22;7352;50.866;4.366;2023-08-12T14:22:26;27.20;98.50
14531;DHT22;7352;50.866;4.366;2023-08-12T14:24:54;27.20;98.40
14531;DHT22;7352;50.866;4.366;2023-08-12T14:27:21;27.50;98.40
14531;DHT22;7352;50.866;4.366;2023-08-12T14:29:49;27.90;97.80
14531;DHT22;7352;50.866;4.366;2023-08-12T14:32:16;27.90;96.50
14531;DHT22;7352;50.866;4.366;2023-08-12T14:34:45;27.70;97.40
14531;DHT22;7352;50.866;4.366;2023-08-12T14:37:13;27.50;96.80
14531;DHT22;7352;50.866;4.366;2023-08-12T14:39:40;27.40;96.60
14531;DHT22;7352;50.866;4.366;2023-08-12T14:42:07;27.60;96.80
14531;DHT22;7352;50.866;4.366;2023-08-12T14:44:36;27.70;97.00
14531;DHT22;7352;50.866;4.366;2023-08-12T14:47:03;27.90;97.10
14531;DHT22;7352;50.866;4.366;2023-08-12T14:49:30;28.10;96.60
14531;DHT22;7352;50.866;4.366;2023-08-12T14:51:59;28.20;95.40
14531;DHT22;7352;50.866;4.366;2023-08-12T14:54:26;28.50;95.30
14531;DHT22;7352;50.866;4.366;2023-08-12T14:56:54;28.80;94.60
14531;DHT22;7352;50.866;4.366;2023-08-12T14:59:22;28.90;94.10
14531;DHT22;7352;50.866;4.366;2023-08-12T15:01:53;28.70;95.20
14531;DHT22;7352;50.866;4.366;2023-08-12T15:04:21;28.70;93.90
14531;DHT22;7352;50.866;4.366;2023-08-12T15:06:48;28.70;93.50
14531;DHT22;7352;50.866;4.366;2023-08-12T15:09:19;28.90;93.20
14531;DHT22;7352;50.866;4.366;2023-08-12T15:11:46;29.00;93.50
14531;DHT22;7352;50.866;4.366;2023-08-12T15:14:13;29.60;92.90
14531;DHT22;7352;50.866;4.366;2023-08-12T15:16:40;30.00;92.40
14531;DHT22;7352;50.866;4.366;2023-08-12T15:19:08;29.80;91.40
14531;DHT22;7352;50.866;4.366;2023-08-12T15:21:36;29.60;92.00
14531;DHT22;7352;50.866;4.366;2023-08-12T15:24:12;29.70;91.90
14531;DHT22;7352;50.866;4.366;2023-08-12T15:26:41;30.00;91.60
14531;DHT22;7352;50.866;4.366;2023-08-12T15:29:08;30.00;90.60
14531;DHT22;7352;50.866;4.366;2023-08-12T15:31:36;30.20;88.70
14531;DHT22;7352;50.866;4.366;2023-08-12T15:34:03;29.90;89.50
14531;DHT22;7352;50.866;4.366;2023-08-12T15:36:30;29.80;89.10
14531;DHT22;7352;50.866;4.366;2023-08-12T15:39:02;29.80;89.50
14531;DHT22;7352;50.866;4.366;2023-08-12T15:41:29;29.60;89.50
14531;DHT22;7352;50.866;4.366;2023-08-12T15:43:58;29.30;90.40
14531;DHT22;7352;50.866;4.366;2023-08-12T15:46:26;29.00;90.30
14531;DHT22;7352;50.866;4.366;2023-08-12T15:48:53;28.80;90.50
14531;DHT22;7352;50.866;4.366;2023-08-12T15:51:20;28.80;91.00
14531;DHT22;7352;50.866;4.366;2023-08-12T15:53:48;28.70;91.00
14531;DHT22;7352;50.866;4.366;2023-08-12T15:56:15;28.80;91.30
14531;DHT22;7352;50.866;4.366;2023-08-12T15:58:42;29.40;90.40
14531;DHT22;7352;50.866;4.366;2023-08-12T16:01:11;30.10;90.40
14531;DHT22;7352;50.866;4.366;2023-08-12T16:03:38;30.80;88.30
14531;DHT22;7352;50.866;4.366;2023-08-12T16:06:05;31.00;84.80
14531;DHT22;7352;50.866;4.366;2023-08-12T16:08:33;31.20;85.50